Terminal Aerodrome Forecast
Issued by NWS Duluth, MN

Current Version | Previous Version | Text Only | Print | Product List | Glossary On
Versions: 1 2 3 4 5 6 7 8 9 10 11 12 13 14 15 16 17 18 19 20 21 22 23 24 25 26 27 28 29
772
FTUS43 KDLH 261333 AAC
TAFDLH
TAF AMD
KDLH 261333Z 2614/2712 05013G22KT 3SM -FZRAPL BR OVC009
     FM261600 04013G22KT 2SM -RAPL BR OVC007
     FM261800 03012G21KT 3SM -FZRAPL OVC008
     FM262000 03011G20KT P6SM VCSH OVC008
     FM270600 01007KT P6SM OVC008
     FM271100 34006KT P6SM OVC015=

USA.gov is the U.S. government's official web portal to all federal, state and local government web resources and services.